Time;durP1;ratioP1;P1;durP2;ratioP2;P2;SDS_P1;SDS_P2;PMS_P1;PMS_P2;Temp;Humidity;BMP_temperature;BMP_pressure;BME280_temperature;BME280_humidity;BME280_pressure;Samples;Min_cycle;Max_cycle;Signal;HPM_P1;HPM_P2
2023/11/11 00:00:41;;;;;;;4.85;2.20;;;;;;;8.96;100.00;99253.19;5091336;28;20031;-67
2023/11/11 00:03:07;;;;;;;8.63;2.08;;;;;;;8.96;100.00;99256.59;5091028;28;20032;-68
2023/11/11 00:05:33;;;;;;;4.90;2.63;;;;;;;9.03;100.00;99254.13;5089601;28;20119;-68
2023/11/11 00:07:58;;;;;;;6.13;2.55;;;;;;;8.94;100.00;99255.16;5090729;28;20112;-67
2023/11/11 00:10:24;;;;;;;5.72;2.70;;;;;;;8.92;100.00;99242.31;5090688;28;20036;-68
2023/11/11 00:12:50;;;;;;;3.67;1.95;;;;;;;8.96;100.00;99248.00;5087589;28;20062;-68
2023/11/11 00:15:15;;;;;;;5.60;2.50;;;;;;;8.96;100.00;99245.41;5091003;28;20117;-68
2023/11/11 00:17:41;;;;;;;4.60;2.63;;;;;;;8.91;100.00;99243.28;5092790;28;20063;-68
2023/11/11 00:20:13;;;;;;;4.13;2.25;;;;;;;8.90;100.00;99244.25;5098216;28;20544;-67
2023/11/11 00:22:42;;;;;;;4.13;2.20;;;;;;;8.98;100.00;99241.63;5092236;28;20056;-67
2023/11/11 00:25:08;;;;;;;4.47;2.08;;;;;;;9.01;100.00;99243.09;5093706;28;20055;-67
2023/11/11 00:27:34;;;;;;;3.15;1.90;;;;;;;9.01;100.00;99245.69;5090503;28;20086;-68
2023/11/11 00:30:03;;;;;;;4.32;1.77;;;;;;;9.06;100.00;99247.81;5091870;28;20035;-67
2023/11/11 00:32:29;;;;;;;3.63;1.60;;;;;;;9.06;100.00;99242.59;5092327;28;20040;-67
2023/11/11 00:34:54;;;;;;;2.53;1.30;;;;;;;9.02;100.00;99249.09;5095098;28;20105;-68
2023/11/11 00:37:22;;;;;;;2.92;1.42;;;;;;;8.99;100.00;99245.03;5095545;28;20043;-68
2023/11/11 00:39:48;;;;;;;7.22;2.05;;;;;;;9.03;100.00;99253.31;5089565;28;20574;-67
2023/11/11 00:42:14;;;;;;;3.88;1.95;;;;;;;9.01;100.00;99242.28;5089485;28;20071;-67
2023/11/11 00:44:44;;;;;;;4.20;2.20;;;;;;;8.97;100.00;99247.03;5089706;28;20032;-67
2023/11/11 00:47:14;;;;;;;2.97;1.55;;;;;;;8.87;100.00;99249.78;5089629;28;20064;-67
2023/11/11 00:49:41;;;;;;;2.75;1.33;;;;;;;8.86;100.00;99253.34;5089144;28;20047;-67
2023/11/11 00:52:07;;;;;;;4.18;1.30;;;;;;;8.82;100.00;99257.25;5091752;28;20081;-67
2023/11/11 00:54:33;;;;;;;4.60;1.23;;;;;;;8.81;100.00;99260.81;5091948;28;20499;-68
2023/11/11 00:57:00;;;;;;;1.88;0.75;;;;;;;8.79;100.00;99262.75;5091966;28;20485;-68
2023/11/11 00:59:26;;;;;;;2.78;0.93;;;;;;;8.80;100.00;99259.19;5086231;28;20028;-68
2023/11/11 01:01:51;;;;;;;2.35;0.55;;;;;;;8.80;100.00;99264.38;5089040;28;20115;-68
2023/11/11 01:04:17;;;;;;;1.15;0.70;;;;;;;8.82;100.00;99261.63;5092608;28;20119;-67
2023/11/11 01:06:43;;;;;;;1.42;0.57;;;;;;;8.84;100.00;99260.50;5091018;28;20028;-67
2023/11/11 01:09:08;;;;;;;1.48;0.38;;;;;;;8.87;100.00;99254.16;5090842;28;20079;-67
2023/11/11 01:11:34;;;;;;;4.22;0.40;;;;;;;8.91;100.00;99261.47;5089573;28;20077;-67
2023/11/11 01:14:00;;;;;;;1.75;0.60;;;;;;;8.97;100.00;99260.81;5089530;28;20028;-67
2023/11/11 01:16:26;;;;;;;1.20;0.45;;;;;;;9.03;100.00;99263.72;5089924;28;20047;-67
2023/11/11 01:18:51;;;;;;;1.95;0.45;;;;;;;9.05;100.00;99264.38;5091285;28;20375;-67
2023/11/11 01:21:17;;;;;;;2.45;0.50;;;;;;;9.07;100.00;99271.03;5091033;28;20056;-67
2023/11/11 01:23:43;;;;;;;1.73;0.50;;;;;;;9.08;100.00;99267.44;5091694;28;20039;-67
2023/11/11 01:26:10;;;;;;;1.02;0.60;;;;;;;9.08;100.00;99277.03;5091173;28;20076;-67
2023/11/11 01:28:35;;;;;;;1.15;0.38;;;;;;;9.06;100.00;99279.78;5089476;28;20085;-67
2023/11/11 01:31:01;;;;;;;2.80;0.65;;;;;;;9.05;100.00;99274.75;5090701;28;20063;-67
2023/11/11 01:33:27;;;;;;;2.47;0.60;;;;;;;9.07;100.00;99276.22;5088592;28;20050;-67
2023/11/11 01:35:53;;;;;;;2.72;1.17;;;;;;;9.09;100.00;99291.66;5091224;28;20035;-67
2023/11/11 01:38:18;;;;;;;1.92;0.75;;;;;;;9.06;100.00;99278.97;5092945;28;20024;-67
2023/11/11 01:40:44;;;;;;;2.25;0.70;;;;;;;9.07;100.00;99283.19;5087270;28;20115;-67
2023/11/11 01:43:12;;;;;;;1.90;0.95;;;;;;;8.94;100.00;99283.72;5091352;28;20036;-67
2023/11/11 01:45:38;;;;;;;1.42;0.73;;;;;;;8.95;100.00;99286.16;5091028;28;20040;-67
2023/11/11 01:48:07;;;;;;;4.60;0.50;;;;;;;8.96;100.00;99290.38;5092996;28;20032;-67
2023/11/11 01:50:34;;;;;;;2.45;0.77;;;;;;;9.04;100.00;99299.13;5089373;28;20039;-67
2023/11/11 01:52:59;;;;;;;2.17;0.80;;;;;;;9.06;100.00;99294.56;5086547;28;20035;-67
2023/11/11 01:55:25;;;;;;;2.20;0.80;;;;;;;9.08;100.00;99296.03;5094096;28;20044;-67
2023/11/11 01:57:51;;;;;;;2.28;0.82;;;;;;;9.09;100.00;99294.25;5090648;28;20024;-67
2023/11/11 02:00:20;;;;;;;1.40;0.52;;;;;;;9.10;100.00;99299.28;5091751;28;20032;-67
2023/11/11 02:02:46;;;;;;;2.88;0.68;;;;;;;9.10;100.00;99303.66;5092408;28;20069;-67
2023/11/11 02:05:11;;;;;;;1.65;0.40;;;;;;;9.07;100.00;99299.59;5088018;28;20135;-67
2023/11/11 02:07:37;;;;;;;1.13;0.55;;;;;;;9.08;100.00;99311.63;5088849;28;20039;-67
2023/11/11 02:10:03;;;;;;;1.90;0.60;;;;;;;9.10;100.00;99306.25;5092622;28;20043;-67
2023/11/11 02:12:30;;;;;;;1.58;0.60;;;;;;;9.10;100.00;99314.88;5091325;28;20028;-67
2023/11/11 02:14:56;;;;;;;0.98;0.57;;;;;;;9.11;100.00;99319.09;5090555;28;20641;-67
2023/11/11 02:17:21;;;;;;;1.65;0.50;;;;;;;9.07;100.00;99327.38;5089359;28;20028;-67
2023/11/11 02:19:47;;;;;;;0.50;0.15;;;;;;;9.04;100.00;99325.09;5090949;28;20141;-67
2023/11/11 02:22:13;;;;;;;0.65;0.20;;;;;;;8.94;100.00;99328.69;5090626;28;20048;-66
2023/11/11 02:24:40;;;;;;;1.63;0.10;;;;;;;8.87;100.00;99330.31;5089738;28;20422;-66
2023/11/11 02:27:06;;;;;;;0.57;0.20;;;;;;;8.82;100.00;99337.75;5091028;28;20031;-66
2023/11/11 02:29:31;;;;;;;0.98;0.20;;;;;;;8.78;100.00;99330.44;5090628;28;20089;-66
2023/11/11 02:31:56;;;;;;;2.75;0.20;;;;;;;8.67;100.00;99328.16;5090304;28;20101;-66
2023/11/11 02:34:23;;;;;;;2.42;0.65;;;;;;;8.53;100.00;99333.00;5088774;28;21438;-66
2023/11/11 02:36:48;;;;;;;2.80;0.35;;;;;;;8.54;100.00;99333.81;5089543;28;20532;-66
2023/11/11 02:39:14;;;;;;;2.75;0.40;;;;;;;8.62;100.00;99333.81;5096345;28;20028;-67
2023/11/11 02:41:40;;;;;;;2.67;0.30;;;;;;;8.63;100.00;99330.25;5092999;28;20028;-66
2023/11/11 02:44:06;;;;;;;1.48;0.20;;;;;;;8.52;100.00;99330.56;5094731;28;20032;-66
2023/11/11 02:46:32;;;;;;;2.55;0.30;;;;;;;8.49;100.00;99338.69;5093725;28;20032;-66
2023/11/11 02:48:57;;;;;;;1.95;0.40;;;;;;;8.45;100.00;99345.16;5094450;28;20024;-67
2023/11/11 02:51:23;;;;;;;0.40;0.10;;;;;;;8.42;100.00;99340.28;5098211;28;20066;-67
2023/11/11 02:53:48;;;;;;;0.47;0.20;;;;;;;8.37;100.00;99339.94;5095680;28;20119;-67
2023/11/11 02:56:14;;;;;;;0.25;0.00;;;;;;;8.20;100.00;99333.84;5101736;28;20026;-67
2023/11/11 02:58:39;;;;;;;0.00;0.00;;;;;;;8.04;100.00;99344.16;5092928;28;20351;-67
2023/11/11 03:01:05;;;;;;;0.10;0.00;;;;;;;7.70;100.00;99337.19;5090636;28;20035;-67
2023/11/11 03:03:30;;;;;;;0.00;0.00;;;;;;;7.74;100.00;99343.69;5092590;28;20040;-67
2023/11/11 03:05:56;;;;;;;0.30;0.00;;;;;;;7.54;100.00;99345.69;5099975;28;20032;-68
2023/11/11 03:08:21;;;;;;;0.00;0.00;;;;;;;7.25;100.00;99348.53;5098567;28;20027;-67
2023/11/11 03:10:47;;;;;;;0.10;0.00;;;;;;;7.20;100.00;99342.19;5092186;28;20039;-67
2023/11/11 03:13:13;;;;;;;0.00;0.00;;;;;;;7.18;100.00;99346.69;5097226;28;20437;-67
2023/11/11 03:15:39;;;;;;;0.00;0.00;;;;;;;7.10;100.00;99342.25;5095638;28;20036;-67
2023/11/11 03:18:04;;;;;;;0.00;0.00;;;;;;;7.07;100.00;99341.78;5093893;28;20085;-67
2023/11/11 03:20:30;;;;;;;0.00;0.00;;;;;;;7.01;100.00;99335.41;5093601;28;20103;-67
2023/11/11 03:22:55;;;;;;;0.00;0.00;;;;;;;6.92;100.00;99331.94;5091698;28;20147;-68
2023/11/11 03:25:21;;;;;;;0.00;0.00;;;;;;;6.80;100.00;99329.72;5098392;28;20051;-67
2023/11/11 03:27:46;;;;;;;0.00;0.00;;;;;;;6.76;100.00;99339.53;5093588;28;20027;-67
2023/11/11 03:30:12;;;;;;;0.05;0.00;;;;;;;6.71;100.00;99331.41;5095416;28;20039;-67
2023/11/11 03:32:38;;;;;;;0.10;0.00;;;;;;;6.67;100.00;99322.31;5094681;28;20028;-67
2023/11/11 03:35:04;;;;;;;0.00;0.00;;;;;;;6.67;100.00;99317.13;5089103;28;20043;-67
2023/11/11 03:37:29;;;;;;;0.00;0.00;;;;;;;6.65;100.00;99298.34;5091103;28;20463;-67
2023/11/11 03:39:55;;;;;;;0.00;0.00;;;;;;;6.61;100.00;99291.84;5095067;28;20024;-69
2023/11/11 03:42:20;;;;;;;0.00;0.00;;;;;;;6.53;100.00;99274.47;5099711;28;20123;-68
2023/11/11 03:44:46;;;;;;;0.00;0.00;;;;;;;6.54;100.00;99241.66;5094529;28;20028;-68
2023/11/11 03:47:11;;;;;;;0.00;0.00;;;;;;;6.51;100.00;99223.84;5091381;28;20481;-68
2023/11/11 03:49:38;;;;;;;0.00;0.00;;;;;;;6.59;100.00;99234.25;5095821;28;20032;-69
2023/11/11 03:52:04;;;;;;;0.00;0.00;;;;;;;6.62;100.00;99226.16;5093232;28;20533;-68
2023/11/11 03:54:30;;;;;;;0.00;0.00;;;;;;;6.63;100.00;99236.38;5092580;28;20032;-69
2023/11/11 03:56:55;;;;;;;0.00;0.00;;;;;;;6.65;100.00;99239.63;5095106;28;20085;-69
2023/11/11 03:59:21;;;;;;;0.00;0.00;;;;;;;6.75;100.00;99242.13;5096519;28;20046;-69
2023/11/11 04:01:46;;;;;;;0.03;0.00;;;;;;;6.84;100.00;99259.38;5096306;28;20098;-69
2023/11/11 04:04:12;;;;;;;0.40;0.00;;;;;;;6.80;100.00;99259.81;5092643;28;20043;-69
2023/11/11 04:06:39;;;;;;;3.38;0.00;;;;;;;6.78;100.00;99267.72;5095810;28;20115;-69
2023/11/11 04:09:05;;;;;;;0.00;0.00;;;;;;;6.79;100.00;99271.94;5095784;28;20396;-69
2023/11/11 04:11:30;;;;;;;0.00;0.00;;;;;;;6.74;100.00;99276.75;5094209;28;20064;-69
2023/11/11 04:13:58;;;;;;;0.00;0.00;;;;;;;6.64;100.00;99281.19;5091741;28;20536;-69
2023/11/11 04:16:26;;;;;;;0.00;0.00;;;;;;;6.62;100.00;99270.16;5095603;28;20050;-69
2023/11/11 04:18:52;;;;;;;0.00;0.00;;;;;;;6.67;100.00;99278.31;5097571;28;20023;-69
2023/11/11 04:21:18;;;;;;;0.38;0.05;;;;;;;6.71;100.00;99289.19;5098117;28;20095;-68
2023/11/11 04:23:43;;;;;;;0.00;0.00;;;;;;;6.76;100.00;99305.88;5092035;28;20504;-69
2023/11/11 04:26:09;;;;;;;0.05;0.00;;;;;;;6.85;100.00;99317.13;5096961;28;20044;-69
2023/11/11 04:28:35;;;;;;;0.00;0.00;;;;;;;6.93;100.00;99318.03;5097868;28;20038;-68
2023/11/11 04:31:00;;;;;;;0.00;0.00;;;;;;;7.00;100.00;99328.59;5100865;28;20062;-68
2023/11/11 04:33:28;;;;;;;0.00;0.00;;;;;;;7.01;100.00;99319.88;5098150;28;20454;-69
2023/11/11 04:35:54;;;;;;;0.28;0.00;;;;;;;7.04;100.00;99339.47;5092828;28;20132;-68
2023/11/11 04:38:21;;;;;;;0.00;0.00;;;;;;;7.05;100.00;99325.56;5091936;28;20480;-69
2023/11/11 04:40:47;;;;;;;0.00;0.00;;;;;;;6.94;100.00;99334.38;5093448;28;20127;-69
2023/11/11 04:43:13;;;;;;;0.00;0.00;;;;;;;6.82;100.00;99331.19;5096919;28;20038;-69
2023/11/11 04:45:38;;;;;;;0.00;0.00;;;;;;;6.85;100.00;99330.91;5099064;28;20036;-69
2023/11/11 04:48:04;;;;;;;0.00;0.00;;;;;;;6.88;100.00;99325.41;5101825;28;20024;-69
2023/11/11 04:50:29;;;;;;;0.55;0.00;;;;;;;6.86;100.00;99317.00;5100953;28;20034;-69
2023/11/11 04:52:55;;;;;;;0.00;0.00;;;;;;;6.80;100.00;99307.22;5097211;28;20032;-69
2023/11/11 04:55:20;;;;;;;0.10;0.00;;;;;;;6.80;100.00;99316.75;5103929;28;20039;-69
2023/11/11 04:57:46;;;;;;;0.00;0.00;;;;;;;6.78;100.00;99318.69;5090117;28;20047;-69
2023/11/11 05:00:13;;;;;;;0.00;0.00;;;;;;;6.73;100.00;99310.56;5098911;28;20020;-69
2023/11/11 05:02:43;;;;;;;0.17;0.00;;;;;;;6.72;100.00;99322.69;5095742;28;20031;-69
2023/11/11 05:05:12;;;;;;;0.00;0.00;;;;;;;6.71;100.00;99328.81;5105108;27;20127;-69
2023/11/11 05:07:39;;;;;;;0.05;0.00;;;;;;;6.68;100.00;99329.09;5090028;28;20100;-69
2023/11/11 05:10:09;;;;;;;0.00;0.00;;;;;;;6.61;100.00;99322.91;5091372;28;20035;-69
2023/11/11 05:12:35;;;;;;;0.00;0.00;;;;;;;6.61;100.00;99328.09;5088479;28;20042;-69
2023/11/11 05:15:04;;;;;;;0.10;0.00;;;;;;;6.58;100.00;99333.56;5095230;28;20035;-69
2023/11/11 05:17:30;;;;;;;0.00;0.00;;;;;;;6.56;100.00;99336.28;5092521;28;20115;-69
2023/11/11 05:19:58;;;;;;;0.00;0.00;;;;;;;6.51;100.00;99337.69;5098035;28;20115;-68
2023/11/11 05:22:23;;;;;;;0.00;0.00;;;;;;;6.51;100.00;99343.69;5097296;28;20054;-68
2023/11/11 05:24:49;;;;;;;1.13;0.00;;;;;;;6.54;100.00;99347.75;5091894;28;20031;-68
2023/11/11 05:27:14;;;;;;;0.00;0.00;;;;;;;6.59;100.00;99343.78;5092917;28;20107;-68
2023/11/11 05:29:40;;;;;;;0.20;0.00;;;;;;;6.60;100.00;99357.53;5089376;28;20024;-68
2023/11/11 05:32:06;;;;;;;0.52;0.00;;;;;;;6.64;100.00;99370.00;5094185;28;20035;-68
2023/11/11 05:34:31;;;;;;;0.05;0.00;;;;;;;6.65;100.00;99369.03;5090442;28;20059;-68
2023/11/11 05:36:58;;;;;;;0.00;0.00;;;;;;;6.64;100.00;99380.34;5091129;28;20085;-68
2023/11/11 05:39:23;;;;;;;0.00;0.00;;;;;;;6.62;100.00;99376.28;5093881;28;20020;-68
2023/11/11 05:41:50;;;;;;;0.00;0.00;;;;;;;6.63;100.00;99380.50;5089538;28;20024;-68
2023/11/11 05:44:17;;;;;;;0.00;0.00;;;;;;;6.59;100.00;99384.38;5089546;28;20111;-68
2023/11/11 05:46:42;;;;;;;0.00;0.00;;;;;;;6.58;100.00;99388.72;5090815;28;20491;-68
2023/11/11 05:49:08;;;;;;;0.08;0.00;;;;;;;6.58;100.00;99401.66;5091168;28;20071;-68
2023/11/11 05:51:33;;;;;;;0.45;0.00;;;;;;;6.56;100.00;99408.75;5092574;28;20481;-68
2023/11/11 05:54:01;;;;;;;0.47;0.00;;;;;;;6.56;100.00;99407.94;5090098;28;20030;-68
2023/11/11 05:56:27;;;;;;;0.00;0.00;;;;;;;6.53;100.00;99428.94;5089064;28;20114;-68
2023/11/11 05:58:52;;;;;;;0.13;0.00;;;;;;;6.55;100.00;99434.78;5089434;28;20040;-68
2023/11/11 06:01:18;;;;;;;0.00;0.00;;;;;;;6.51;100.00;99442.00;5091262;28;20031;-68
2023/11/11 06:03:43;;;;;;;0.00;0.00;;;;;;;6.51;100.00;99454.13;5090062;28;20467;-68
2023/11/11 06:06:09;;;;;;;0.00;0.00;;;;;;;6.48;100.00;99454.41;5093258;28;20196;-68
2023/11/11 06:08:34;;;;;;;0.10;0.00;;;;;;;6.37;100.00;99458.00;5097948;28;20035;-68
2023/11/11 06:11:00;;;;;;;0.10;0.10;;;;;;;6.42;100.00;99458.38;5092355;28;20020;-68
2023/11/11 06:13:25;;;;;;;2.20;0.00;;;;;;;6.40;100.00;99459.50;5097111;28;20543;-68
2023/11/11 06:15:51;;;;;;;0.00;0.00;;;;;;;6.38;100.00;99469.16;5091612;28;20541;-68
2023/11/11 06:18:17;;;;;;;0.13;0.00;;;;;;;6.32;100.00;99473.13;5094718;28;20047;-68
2023/11/11 06:20:42;;;;;;;0.00;0.00;;;;;;;6.38;100.00;99479.50;5105724;28;20043;-68
2023/11/11 06:23:08;;;;;;;0.25;0.00;;;;;;;6.42;100.00;99484.25;5100650;28;20044;-68
2023/11/11 06:25:33;;;;;;;0.20;0.08;;;;;;;6.44;100.00;99484.13;5101723;28;20032;-68
2023/11/11 06:27:59;;;;;;;0.40;0.10;;;;;;;6.45;100.00;99488.34;5096359;28;20114;-68
2023/11/11 06:30:25;;;;;;;0.15;0.00;;;;;;;6.33;100.00;99496.28;5101608;28;20036;-68
2023/11/11 06:32:51;;;;;;;0.28;0.00;;;;;;;6.18;100.00;99508.00;5097511;28;20036;-68
2023/11/11 06:35:20;;;;;;;1.15;0.03;;;;;;;6.12;100.00;99511.19;5095509;28;20391;-68
2023/11/11 06:37:45;;;;;;;0.88;0.00;;;;;;;6.10;100.00;99518.25;5093998;28;20039;-68
2023/11/11 06:40:12;;;;;;;0.20;0.00;;;;;;;6.11;100.00;99526.84;5096952;28;20020;-68
2023/11/11 06:42:37;;;;;;;1.00;0.10;;;;;;;6.08;100.00;99521.94;5092371;28;20036;-68
2023/11/11 06:45:05;;;;;;;0.63;0.10;;;;;;;6.09;100.00;99531.34;5101216;28;20034;-68
2023/11/11 06:47:31;;;;;;;0.13;0.00;;;;;;;6.09;100.00;99529.56;5097330;28;20028;-68
2023/11/11 06:49:57;;;;;;;0.65;0.00;;;;;;;6.15;100.00;99528.16;5098292;28;20056;-68
2023/11/11 06:52:22;;;;;;;0.00;0.00;;;;;;;6.18;100.00;99530.47;5099265;28;20031;-68
2023/11/11 06:54:47;;;;;;;0.00;0.00;;;;;;;6.17;100.00;99534.81;5093375;28;20038;-68
2023/11/11 06:57:13;;;;;;;0.43;0.00;;;;;;;6.22;100.00;99532.66;5091819;28;20032;-68
2023/11/11 06:59:38;;;;;;;0.20;0.00;;;;;;;6.28;100.00;99537.25;5097830;28;20032;-68
2023/11/11 07:02:05;;;;;;;0.32;0.03;;;;;;;6.25;100.00;99542.72;5099076;28;20073;-68
2023/11/11 07:04:31;;;;;;;0.00;0.00;;;;;;;6.20;100.00;99560.41;5099843;28;20028;-68
2023/11/11 07:06:57;;;;;;;0.35;0.00;;;;;;;6.25;100.00;99560.00;5096462;28;20032;-68
2023/11/11 07:09:23;;;;;;;0.10;0.00;;;;;;;6.33;100.00;99575.66;5094380;28;20037;-68
2023/11/11 07:11:48;;;;;;;0.28;0.00;;;;;;;6.42;100.00;99579.19;5093935;28;20031;-68
2023/11/11 07:14:14;;;;;;;0.30;0.17;;;;;;;6.46;100.00;99578.75;5103832;28;20037;-68
2023/11/11 07:16:42;;;;;;;1.50;0.25;;;;;;;6.52;100.00;99592.94;5099865;28;20020;-69
2023/11/11 07:19:07;;;;;;;0.73;0.20;;;;;;;6.51;100.00;99601.63;5091288;28;20077;-68
2023/11/11 07:21:34;;;;;;;1.58;0.20;;;;;;;6.47;100.00;99610.63;5097340;28;20040;-68
2023/11/11 07:23:59;;;;;;;1.05;0.20;;;;;;;6.48;100.00;99614.84;5106394;28;20039;-68
2023/11/11 07:26:27;;;;;;;0.38;0.15;;;;;;;6.47;100.00;99626.16;5099944;28;20134;-68
2023/11/11 07:28:53;;;;;;;1.42;0.30;;;;;;;6.47;100.00;99632.16;5093109;28;20108;-68
2023/11/11 07:31:22;;;;;;;0.68;0.20;;;;;;;6.49;100.00;99621.66;5091531;28;20110;-70
2023/11/11 07:33:47;;;;;;;1.23;0.20;;;;;;;6.48;100.00;99623.44;5091590;28;20513;-69
2023/11/11 07:36:13;;;;;;;0.88;0.20;;;;;;;6.50;100.00;99626.72;5104135;28;20031;-69
2023/11/11 07:38:39;;;;;;;0.38;0.10;;;;;;;6.53;100.00;99641.13;5095265;28;20425;-69
2023/11/11 07:41:10;;;;;;;1.00;0.20;;;;;;;6.47;100.00;99641.69;5091292;28;20483;-69
2023/11/11 07:43:36;;;;;;;1.45;0.20;;;;;;;6.37;100.00;99646.88;5092014;28;20471;-69
2023/11/11 07:46:06;;;;;;;0.30;0.10;;;;;;;6.44;100.00;99641.97;5101391;28;20032;-69
2023/11/11 07:48:32;;;;;;;0.30;0.10;;;;;;;6.46;100.00;99651.22;5095719;28;20544;-69
2023/11/11 07:50:58;;;;;;;0.60;0.13;;;;;;;6.40;100.00;99648.38;5095249;28;20084;-70
2023/11/11 07:53:26;;;;;;;1.30;0.10;;;;;;;6.38;100.00;99653.69;5106038;28;20027;-69
2023/11/11 07:55:52;;;;;;;0.63;0.10;;;;;;;6.46;100.00;99653.00;5102579;28;20533;-70
2023/11/11 07:58:18;;;;;;;1.02;0.10;;;;;;;6.52;100.00;99650.66;5097233;28;20133;-69
2023/11/11 08:00:44;;;;;;;1.67;0.32;;;;;;;6.60;100.00;99650.00;5086461;28;20031;-69
2023/11/11 08:03:11;;;;;;;0.80;0.40;;;;;;;6.64;100.00;99652.13;5103071;28;20418;-69
2023/11/11 08:05:37;;;;;;;1.08;0.40;;;;;;;6.73;100.00;99650.47;5089956;28;20038;-70
2023/11/11 08:08:03;;;;;;;0.90;0.50;;;;;;;6.79;100.00;99654.28;5089732;28;20110;-69
2023/11/11 08:10:28;;;;;;;0.80;0.30;;;;;;;6.90;100.00;99660.13;5099018;28;20131;-69
2023/11/11 08:12:54;;;;;;;3.42;0.98;;;;;;;7.04;100.00;99658.88;5091419;28;20076;-69
2023/11/11 08:15:21;;;;;;;3.38;0.80;;;;;;;7.12;100.00;99666.72;5095011;28;20396;-68
2023/11/11 08:17:48;;;;;;;1.75;0.60;;;;;;;7.06;100.00;99658.72;5088489;28;20490;-69
2023/11/11 08:20:16;;;;;;;1.45;0.50;;;;;;;7.09;100.00;99658.44;5095826;28;20032;-68
2023/11/11 08:22:49;;;;;;;1.27;0.20;;;;;;;7.17;100.00;99661.13;5103573;28;20499;-69
2023/11/11 08:25:15;;;;;;;0.82;0.13;;;;;;;7.14;100.00;99658.81;5092167;28;20110;-68
2023/11/11 08:27:42;;;;;;;0.82;0.10;;;;;;;7.13;100.00;99660.59;5095063;28;20114;-69
2023/11/11 08:30:10;;;;;;;1.50;0.10;;;;;;;7.19;100.00;99659.19;5099962;28;20024;-69
2023/11/11 08:32:36;;;;;;;0.20;0.10;;;;;;;7.26;100.00;99655.09;5103424;28;20058;-69
2023/11/11 08:35:02;;;;;;;0.20;0.00;;;;;;;7.25;100.00;99659.44;5098237;28;20445;-69
2023/11/11 08:37:27;;;;;;;0.50;0.00;;;;;;;7.29;100.00;99659.97;5093735;28;20032;-69
2023/11/11 08:39:53;;;;;;;0.10;0.00;;;;;;;7.38;100.00;99669.50;5094607;28;20101;-68
2023/11/11 08:42:19;;;;;;;0.43;0.03;;;;;;;7.48;100.00;99675.44;5089530;28;20024;-69
2023/11/11 08:44:44;;;;;;;0.30;0.00;;;;;;;7.50;100.00;99681.31;5097104;28;20042;-69
2023/11/11 08:47:09;;;;;;;0.40;0.00;;;;;;;7.54;100.00;99685.25;5099569;28;20020;-67
2023/11/11 08:49:35;;;;;;;0.13;0.10;;;;;;;7.59;100.00;99679.59;5088745;28;20032;-69
2023/11/11 08:52:01;;;;;;;0.45;0.10;;;;;;;7.67;100.00;99684.88;5095219;28;20115;-69
2023/11/11 08:54:26;;;;;;;0.77;0.00;;;;;;;7.67;100.00;99687.47;5103731;28;20038;-68
2023/11/11 08:56:52;;;;;;;0.38;0.00;;;;;;;7.71;100.00;99691.41;5098349;28;20028;-68
2023/11/11 08:59:18;;;;;;;0.82;0.00;;;;;;;7.66;100.00;99691.84;5102309;28;20111;-68
2023/11/11 09:01:44;;;;;;;0.30;0.03;;;;;;;7.65;100.00;99702.38;5099611;28;20024;-68
2023/11/11 09:04:09;;;;;;;0.40;0.00;;;;;;;7.72;100.00;99692.25;5098435;28;20036;-69
2023/11/11 09:06:35;;;;;;;1.70;0.10;;;;;;;7.78;100.00;99702.84;5095942;28;20093;-69
2023/11/11 09:09:01;;;;;;;0.30;0.00;;;;;;;7.80;100.00;99710.47;5096390;28;20027;-69
2023/11/11 09:11:27;;;;;;;0.17;0.00;;;;;;;7.89;100.00;99707.84;5094034;28;20039;-69
2023/11/11 09:13:52;;;;;;;0.10;0.05;;;;;;;7.97;100.00;99713.13;5096751;28;20146;-69
2023/11/11 09:16:18;;;;;;;1.05;0.20;;;;;;;8.00;100.00;99706.81;5094433;28;20036;-69
2023/11/11 09:18:44;;;;;;;0.30;0.10;;;;;;;8.08;100.00;99719.84;5097023;28;20509;-69
2023/11/11 09:21:09;;;;;;;1.45;0.00;;;;;;;8.12;100.00;99718.59;5092836;28;20056;-69
2023/11/11 09:23:36;;;;;;;0.90;0.10;;;;;;;8.15;100.00;99715.72;5087750;28;20490;-69
2023/11/11 09:26:05;;;;;;;0.30;0.10;;;;;;;8.20;100.00;99718.69;5089132;28;20024;-69
2023/11/11 09:28:32;;;;;;;1.52;0.10;;;;;;;8.22;100.00;99718.53;5090139;28;20110;-69
2023/11/11 09:30:57;;;;;;;1.20;0.05;;;;;;;8.18;100.00;99714.59;5087997;28;20484;-70
2023/11/11 09:33:23;;;;;;;0.85;0.00;;;;;;;8.16;100.00;99709.56;5088554;28;20042;-70
2023/11/11 09:35:49;;;;;;;3.47;0.20;;;;;;;8.12;100.00;99721.19;5092118;28;20424;-70
2023/11/11 09:38:14;;;;;;;0.25;0.10;;;;;;;8.13;100.00;99715.03;5089893;28;20532;-69
2023/11/11 09:40:40;;;;;;;0.17;0.00;;;;;;;8.17;100.00;99721.56;5086234;28;20063;-70
2023/11/11 09:43:06;;;;;;;0.77;0.10;;;;;;;8.16;100.00;99717.34;5096647;28;20057;-70
2023/11/11 09:45:31;;;;;;;0.35;0.10;;;;;;;8.16;100.00;99721.72;5093360;28;20048;-69
2023/11/11 09:48:00;;;;;;;0.10;0.00;;;;;;;8.14;100.00;99721.88;5089351;28;20028;-70
2023/11/11 09:50:26;;;;;;;1.60;0.03;;;;;;;8.11;100.00;99724.75;5084926;28;20150;-69
2023/11/11 09:52:54;;;;;;;0.10;0.10;;;;;;;8.11;100.00;99729.13;5093923;28;20637;-69
2023/11/11 09:55:20;;;;;;;0.47;0.00;;;;;;;8.13;100.00;99719.41;5093037;28;20027;-70
2023/11/11 09:57:48;;;;;;;1.08;0.40;;;;;;;8.14;100.00;99724.47;5095498;28;20046;-70
2023/11/11 10:00:16;;;;;;;1.27;0.10;;;;;;;8.14;100.00;99723.66;5099750;28;20058;-69
2023/11/11 10:02:42;;;;;;;0.17;0.00;;;;;;;8.21;100.00;99725.50;5104354;28;20036;-70
2023/11/11 10:05:10;;;;;;;0.85;0.08;;;;;;;8.30;100.00;99714.25;5093589;28;20039;-69
2023/11/11 10:07:39;;;;;;;0.52;0.00;;;;;;;8.21;100.00;99715.13;5103668;28;20032;-69
2023/11/11 10:10:09;;;;;;;0.40;0.10;;;;;;;8.25;100.00;99716.47;5099877;28;20033;-69
2023/11/11 10:12:36;;;;;;;0.20;0.00;;;;;;;8.24;100.00;99714.03;5093930;28;20450;-69
2023/11/11 10:15:04;;;;;;;0.82;0.00;;;;;;;8.30;100.00;99718.63;5098798;28;20490;-69
2023/11/11 10:17:29;;;;;;;1.33;0.00;;;;;;;8.30;100.00;99716.03;5089096;28;20546;-69
2023/11/11 10:19:57;;;;;;;0.30;0.00;;;;;;;8.31;100.00;99715.88;5091890;28;20111;-70
2023/11/11 10:22:23;;;;;;;0.05;0.00;;;;;;;8.31;100.00;99712.47;5087882;28;20052;-70
2023/11/11 10:24:49;;;;;;;0.10;0.00;;;;;;;8.27;100.00;99711.94;5098818;28;20037;-70
2023/11/11 10:27:17;;;;;;;0.80;0.00;;;;;;;8.39;100.00;99722.16;5086481;28;20106;-70
2023/11/11 10:29:42;;;;;;;0.45;0.00;;;;;;;8.42;100.00;99712.28;5092845;28;20038;-70
2023/11/11 10:32:08;;;;;;;0.38;0.00;;;;;;;8.35;100.00;99710.44;5094555;28;20028;-70
2023/11/11 10:34:36;;;;;;;0.80;0.00;;;;;;;8.46;100.00;99700.63;5093175;28;20441;-69
2023/11/11 10:37:02;;;;;;;0.70;0.00;;;;;;;8.52;100.00;99699.19;5091160;28;20535;-69
2023/11/11 10:39:29;;;;;;;0.32;0.03;;;;;;;8.70;100.00;99697.41;5092702;28;20475;-69
2023/11/11 10:41:56;;;;;;;0.38;0.08;;;;;;;8.75;100.00;99686.56;5088985;28;20093;-69
2023/11/11 10:44:23;;;;;;;0.35;0.00;;;;;;;8.75;100.00;99686.56;5088324;28;20036;-69
2023/11/11 10:46:48;;;;;;;0.13;0.00;;;;;;;8.78;100.00;99686.25;5089356;28;20024;-70
2023/11/11 10:49:15;;;;;;;0.30;0.00;;;;;;;8.82;100.00;99678.03;5092997;28;20424;-67
2023/11/11 10:51:41;;;;;;;0.10;0.00;;;;;;;8.88;100.00;99680.00;5087890;28;20038;-67
2023/11/11 10:54:08;;;;;;;0.20;0.00;;;;;;;8.93;100.00;99676.97;5093724;28;20154;-67
2023/11/11 10:56:34;;;;;;;0.47;0.10;;;;;;;9.09;100.00;99677.03;5102784;28;20154;-67
2023/11/11 10:59:04;;;;;;;0.90;0.10;;;;;;;8.99;100.00;99684.13;5099784;28;20111;-67
2023/11/11 11:01:31;;;;;;;0.10;0.00;;;;;;;9.07;100.00;99684.16;5090145;28;20395;-67
2023/11/11 11:03:56;;;;;;;1.45;0.00;;;;;;;9.10;100.00;99676.06;5089318;28;20051;-67
2023/11/11 11:06:42;;;;;;;0.20;0.00;;;;;;;9.13;100.00;99680.97;5095004;28;20113;-67
2023/11/11 11:09:42;;;;;;;0.15;0.00;;;;;;;9.14;100.00;99677.38;5095611;28;20028;-68
2023/11/11 11:12:40;;;;;;;0.52;0.00;;;;;;;9.09;100.00;99678.81;5098219;28;20110;-67
2023/11/11 11:15:06;;;;;;;1.02;0.05;;;;;;;9.05;100.00;99675.72;5084290;28;20051;-67
2023/11/11 11:17:44;;;;;;;0.20;0.03;;;;;;;8.99;100.00;99678.91;5103512;28;20039;-67
2023/11/11 11:20:20;;;;;;;0.70;0.00;;;;;;;9.07;100.00;99671.16;5102119;28;20032;-67
2023/11/11 11:22:47;;;;;;;0.95;0.00;;;;;;;9.07;100.00;99675.56;5099702;28;20051;-67
2023/11/11 11:25:36;;;;;;;1.63;0.00;;;;;;;9.01;100.00;99676.16;5098233;28;20497;-67
2023/11/11 11:28:11;;;;;;;0.25;0.00;;;;;;;9.04;100.00;99666.28;5102206;28;20024;-67
2023/11/11 11:30:47;;;;;;;0.13;0.03;;;;;;;9.09;100.00;99669.25;5098637;28;21725;-67